Time;durP1;ratioP1;P1;durP2;ratioP2;P2;SDS_P1;SDS_P2;PMS_P1;PMS_P2;Temp;Humidity;BMP_temperature;BMP_pressure;BME280_temperature;BME280_humidity;BME280_pressure;Samples;Min_cycle;Max_cycle;Signal;HPM_P1;HPM_P2
2021/07/10 00:01:58;;;;;;;16.05;13.93;;;15.20;97.60;;;;;;5038388;28;20071;-81
2021/07/10 00:04:26;;;;;;;20.25;15.13;;;15.10;97.60;;;;;;5008575;28;20400;-81
2021/07/10 00:06:54;;;;;;;19.63;14.30;;;15.10;97.70;;;;;;5025790;28;20031;-81
2021/07/10 00:09:20;;;;;;;24.70;14.18;;;15.10;97.80;;;;;;5024739;28;20037;-81
2021/07/10 00:11:47;;;;;;;18.15;14.00;;;15.10;97.90;;;;;;5011376;28;20036;-81
2021/07/10 00:14:13;;;;;;;23.00;16.35;;;15.10;98.00;;;;;;5018996;28;20119;-83
2021/07/10 00:16:39;;;;;;;22.17;17.40;;;15.10;98.00;;;;;;5060618;28;20123;-80
2021/07/10 00:19:05;;;;;;;22.35;16.17;;;15.10;98.10;;;;;;5043294;28;20079;-80
2021/07/10 00:21:31;;;;;;;25.00;17.23;;;15.10;98.10;;;;;;5043917;28;20060;-80
2021/07/10 00:23:57;;;;;;;23.52;17.20;;;15.10;98.10;;;;;;5042213;28;20067;-80
2021/07/10 00:26:23;;;;;;;21.95;14.85;;;15.00;98.10;;;;;;5047155;28;20559;-80
2021/07/10 00:28:49;;;;;;;23.70;15.73;;;15.00;98.10;;;;;;5042563;28;20029;-80
2021/07/10 00:31:14;;;;;;;22.60;16.92;;;15.00;98.10;;;;;;5010567;28;20119;-80
2021/07/10 00:33:42;;;;;;;22.15;16.08;;;15.00;98.20;;;;;;5007736;28;20037;-80
2021/07/10 00:36:08;;;;;;;19.38;15.90;;;14.90;98.10;;;;;;4997068;28;20058;-81
2021/07/10 00:38:34;;;;;;;25.27;17.95;;;14.90;98.10;;;;;;5028898;28;20040;-81
2021/07/10 00:41:01;;;;;;;22.85;17.17;;;14.90;98.20;;;;;;5025380;28;20036;-81
2021/07/10 00:43:27;;;;;;;23.15;17.40;;;14.90;98.30;;;;;;5028265;28;20038;-80
2021/07/10 00:45:52;;;;;;;25.67;17.00;;;14.90;98.30;;;;;;5040965;28;20109;-80
2021/07/10 00:48:18;;;;;;;21.42;15.68;;;14.80;98.30;;;;;;5023187;28;20051;-81
2021/07/10 00:50:44;;;;;;;22.10;16.13;;;14.80;98.30;;;;;;5044309;28;20043;-80
2021/07/10 00:53:11;;;;;;;20.52;14.85;;;14.80;98.70;;;;;;5027630;28;20531;-80
2021/07/10 00:55:37;;;;;;;21.65;14.93;;;14.80;98.50;;;;;;5022663;28;20119;-80
2021/07/10 00:58:03;;;;;;;20.02;15.68;;;14.70;98.50;;;;;;5028872;28;20124;-81
2021/07/10 01:00:29;;;;;;;19.75;15.43;;;14.70;98.50;;;;;;5024497;28;20060;-81
2021/07/10 01:02:56;;;;;;;18.75;14.93;;;14.70;98.50;;;;;;5031691;28;20067;-80
2021/07/10 01:05:24;;;;;;;21.30;15.30;;;14.70;98.60;;;;;;5040741;28;20050;-80
2021/07/10 01:07:51;;;;;;;17.35;15.02;;;14.70;98.60;;;;;;5042113;28;20045;-80
2021/07/10 01:10:18;;;;;;;18.25;14.75;;;14.60;98.40;;;;;;5024606;28;20037;-80
2021/07/10 01:12:47;;;;;;;24.27;15.07;;;14.60;98.50;;;;;;5030053;28;20114;-81
2021/07/10 01:15:16;;;;;;;19.85;14.93;;;14.60;98.60;;;;;;5042436;28;20036;-81
2021/07/10 01:17:46;;;;;;;25.73;17.88;;;14.50;98.60;;;;;;5043418;28;20106;-80
2021/07/10 01:20:17;;;;;;;24.52;17.20;;;14.50;98.70;;;;;;5027162;28;20490;-81
2021/07/10 01:22:45;;;;;;;25.60;17.42;;;14.50;98.70;;;;;;5034066;28;20034;-80
2021/07/10 01:25:14;;;;;;;21.52;16.40;;;14.40;98.70;;;;;;5043016;28;21675;-81
2021/07/10 01:27:40;;;;;;;27.77;17.73;;;14.40;98.80;;;;;;5043805;28;20033;-81
2021/07/10 01:30:08;;;;;;;25.83;18.60;;;14.40;98.90;;;;;;5003490;28;20053;-80
2021/07/10 01:32:35;;;;;;;29.75;19.33;;;14.40;98.90;;;;;;5039898;28;20033;-81
2021/07/10 01:35:01;;;;;;;30.67;17.60;;;14.40;99.00;;;;;;5055203;28;20489;-80
2021/07/10 01:37:27;;;;;;;31.88;19.02;;;14.30;99.00;;;;;;5042198;28;20038;-80
2021/07/10 01:39:53;;;;;;;28.42;19.75;;;14.30;99.10;;;;;;5023781;28;20048;-80
2021/07/10 01:42:19;;;;;;;23.02;17.70;;;14.30;99.10;;;;;;5011912;28;20500;-80
2021/07/10 01:44:45;;;;;;;31.58;20.48;;;14.30;99.20;;;;;;5055552;28;20445;-80
2021/07/10 01:47:12;;;;;;;31.10;19.48;;;14.30;99.30;;;;;;5007795;28;20032;-80
2021/07/10 01:49:37;;;;;;;26.17;18.65;;;14.30;99.30;;;;;;5057170;28;20492;-80
2021/07/10 01:52:04;;;;;;;25.73;17.52;;;14.30;99.30;;;;;;5009415;28;20056;-80
2021/07/10 01:54:30;;;;;;;30.40;18.70;;;14.30;99.20;;;;;;5037763;28;20061;-81
2021/07/10 01:56:55;;;;;;;25.75;19.00;;;14.30;99.20;;;;;;5035986;28;20511;-80
2021/07/10 01:59:21;;;;;;;29.55;18.98;;;14.30;99.20;;;;;;5025261;28;20367;-80
2021/07/10 02:01:50;;;;;;;26.27;18.20;;;14.20;99.20;;;;;;5007825;28;20067;-80
2021/07/10 02:04:18;;;;;;;27.13;18.75;;;14.20;99.30;;;;;;5054958;28;20042;-80
2021/07/10 02:06:44;;;;;;;32.50;20.13;;;14.20;99.30;;;;;;5003685;28;20382;-80
2021/07/10 02:09:11;;;;;;;29.05;20.05;;;14.20;99.30;;;;;;5007052;28;20492;-81
2021/07/10 02:11:37;;;;;;;33.42;19.60;;;14.20;99.40;;;;;;5036337;28;20032;-81
2021/07/10 02:14:05;;;;;;;25.70;19.52;;;14.10;99.30;;;;;;5020555;28;20496;-80
2021/07/10 02:16:31;;;;;;;32.30;19.67;;;14.10;99.30;;;;;;5025333;28;20040;-80
2021/07/10 02:19:00;;;;;;;26.58;18.95;;;14.10;99.30;;;;;;5008901;28;20024;-80
2021/07/10 02:21:26;;;;;;;28.00;19.20;;;14.00;99.40;;;;;;5019453;28;20063;-80
2021/07/10 02:23:55;;;;;;;25.20;18.00;;;14.10;99.50;;;;;;5025963;28;20029;-80
2021/07/10 02:26:20;;;;;;;27.05;19.05;;;14.10;99.50;;;;;;5016843;28;20048;-80
2021/07/10 02:28:46;;;;;;;32.97;21.20;;;14.10;99.50;;;;;;5003241;28;20066;-81
2021/07/10 02:31:13;;;;;;;34.15;19.85;;;14.00;99.60;;;;;;5023838;28;20390;-80
2021/07/10 02:33:39;;;;;;;30.38;20.55;;;14.00;99.40;;;;;;5004958;28;20028;-80
2021/07/10 02:36:05;;;;;;;30.88;19.35;;;14.00;99.40;;;;;;5026886;28;20051;-80
2021/07/10 02:38:30;;;;;;;33.17;21.52;;;13.90;99.40;;;;;;5018663;28;20033;-81
2021/07/10 02:40:56;;;;;;;30.92;20.50;;;14.00;99.50;;;;;;5038026;28;20025;-81
2021/07/10 02:43:22;;;;;;;31.98;19.45;;;14.00;99.60;;;;;;5053316;28;20074;-81
2021/07/10 02:45:48;;;;;;;31.83;19.92;;;14.00;99.60;;;;;;5025699;28;20416;-80
2021/07/10 02:48:14;;;;;;;36.38;21.08;;;14.00;99.70;;;;;;5022384;28;20135;-80
2021/07/10 02:50:41;;;;;;;27.38;19.65;;;14.00;99.70;;;;;;5023367;28;20094;-80
2021/07/10 02:53:07;;;;;;;32.38;18.15;;;14.00;99.70;;;;;;5045563;28;20029;-80
2021/07/10 02:55:34;;;;;;;23.75;16.25;;;14.00;99.70;;;;;;5021592;28;20079;-81
2021/07/10 02:58:00;;;;;;;21.20;15.77;;;14.00;99.70;;;;;;5009917;28;20045;-81
2021/07/10 03:00:28;;;;;;;31.10;17.60;;;14.00;99.70;;;;;;5043439;28;20545;-81
2021/07/10 03:02:55;;;;;;;24.25;16.88;;;14.00;99.80;;;;;;5038812;28;20123;-81
2021/07/10 03:05:21;;;;;;;11.90;9.85;;;14.00;99.80;;;;;;5056851;28;20048;-81
2021/07/10 03:07:47;;;;;;;14.00;10.25;;;14.00;99.70;;;;;;5044400;28;20068;-81
2021/07/10 03:10:19;;;;;;;12.63;10.48;;;14.00;99.50;;;;;;5022772;28;20029;-81
2021/07/10 03:12:46;;;;;;;13.98;11.52;;;14.00;99.50;;;;;;5040955;28;20040;-81
2021/07/10 03:15:15;;;;;;;15.43;13.15;;;14.00;99.40;;;;;;5038073;28;20036;-81
2021/07/10 03:17:46;;;;;;;18.30;12.98;;;14.00;99.30;;;;;;5029254;28;20040;-81
2021/07/10 03:20:13;;;;;;;17.50;13.90;;;13.90;99.30;;;;;;5043994;28;20033;-81
2021/07/10 03:22:40;;;;;;;18.48;13.52;;;14.00;99.30;;;;;;5041537;28;20047;-81
2021/07/10 03:25:09;;;;;;;21.63;16.05;;;13.90;99.20;;;;;;5041322;28;20122;-81
2021/07/10 03:27:35;;;;;;;23.23;16.80;;;13.90;99.20;;;;;;5041662;28;20496;-81
2021/07/10 03:30:03;;;;;;;25.70;16.67;;;13.90;99.30;;;;;;5054869;28;20116;-81
2021/07/10 03:32:29;;;;;;;25.20;17.35;;;14.00;99.40;;;;;;5043558;28;20032;-81
2021/07/10 03:34:55;;;;;;;29.40;19.35;;;14.00;99.50;;;;;;5033489;28;20105;-81
2021/07/10 03:37:21;;;;;;;25.10;17.08;;;14.00;99.60;;;;;;5019300;28;20040;-81
2021/07/10 03:39:46;;;;;;;23.48;17.17;;;14.00;99.80;;;;;;5041535;28;20040;-81
2021/07/10 03:42:12;;;;;;;25.58;18.20;;;14.00;99.80;;;;;;5044352;28;20032;-81
2021/07/10 03:44:38;;;;;;;35.10;21.30;;;14.10;99.90;;;;;;5004442;28;20086;-80
2021/07/10 03:47:04;;;;;;;34.33;20.05;;;14.10;99.90;;;;;;5033496;28;20032;-81
2021/07/10 03:49:30;;;;;;;29.08;19.48;;;14.10;99.90;;;;;;5056919;28;20124;-81
2021/07/10 03:51:56;;;;;;;35.63;21.52;;;14.10;99.90;;;;;;5024699;28;20060;-80
2021/07/10 03:54:21;;;;;;;32.85;21.13;;;14.10;99.90;;;;;;5033782;28;20028;-80
2021/07/10 03:56:47;;;;;;;30.08;20.67;;;14.10;99.90;;;;;;5023433;28;20100;-80
2021/07/10 03:59:13;;;;;;;36.10;21.65;;;14.10;99.90;;;;;;5020201;28;20035;-81
2021/07/10 04:01:41;;;;;;;31.23;21.92;;;14.10;99.90;;;;;;5006458;28;20036;-81
2021/07/10 04:04:08;;;;;;;32.10;20.38;;;14.10;99.90;;;;;;5028411;28;20029;-80
2021/07/10 04:06:34;;;;;;;32.90;20.02;;;14.10;99.90;;;;;;5047587;28;20033;-81
2021/07/10 04:09:00;;;;;;;28.05;19.33;;;14.10;99.90;;;;;;5043517;28;20061;-81
2021/07/10 04:11:27;;;;;;;27.55;17.85;;;14.10;99.90;;;;;;5023136;28;20055;-81
2021/07/10 04:13:53;;;;;;;22.52;16.42;;;14.20;99.90;;;;;;5038075;28;20579;-81
2021/07/10 04:16:19;;;;;;;26.35;17.55;;;14.20;99.90;;;;;;5041341;28;20169;-81
2021/07/10 04:18:45;;;;;;;29.48;18.70;;;14.20;99.90;;;;;;5021706;28;20033;-80
2021/07/10 04:21:11;;;;;;;29.98;18.40;;;14.20;99.80;;;;;;5040643;28;20040;-81
2021/07/10 04:23:37;;;;;;;32.00;19.40;;;14.20;99.90;;;;;;5028022;28;20115;-81
2021/07/10 04:26:03;;;;;;;31.60;18.88;;;14.20;99.90;;;;;;5058100;28;20033;-81
2021/07/10 04:28:29;;;;;;;28.35;18.55;;;14.30;99.90;;;;;;5025765;28;20123;-81
2021/07/10 04:30:55;;;;;;;28.85;18.38;;;14.30;99.90;;;;;;5025603;28;20028;-81
2021/07/10 04:33:20;;;;;;;24.25;16.67;;;14.40;99.90;;;;;;5022170;28;20400;-80
2021/07/10 04:35:46;;;;;;;24.75;16.77;;;14.40;99.80;;;;;;5038110;28;20033;-80
2021/07/10 04:38:12;;;;;;;23.63;16.55;;;14.40;99.70;;;;;;5017122;28;20127;-81
2021/07/10 04:40:38;;;;;;;20.25;14.60;;;14.40;99.70;;;;;;4986148;28;20052;-81
2021/07/10 04:43:04;;;;;;;24.67;16.42;;;14.40;99.60;;;;;;5031654;28;20044;-81
2021/07/10 04:45:30;;;;;;;21.98;16.55;;;14.50;99.70;;;;;;5039092;28;20063;-80
2021/07/10 04:47:57;;;;;;;23.92;16.45;;;14.50;99.80;;;;;;5021391;28;20048;-80
2021/07/10 04:50:23;;;;;;;22.77;16.58;;;14.50;99.80;;;;;;5007825;28;20086;-81
2021/07/10 04:52:49;;;;;;;25.30;17.55;;;14.60;99.80;;;;;;5007681;28;20028;-81
2021/07/10 04:55:16;;;;;;;28.30;17.75;;;14.60;99.80;;;;;;5031999;28;20510;-81
2021/07/10 04:57:43;;;;;;;27.33;18.00;;;14.60;99.70;;;;;;5037396;28;20040;-81
2021/07/10 05:00:10;;;;;;;29.73;19.95;;;14.60;99.70;;;;;;5031862;28;20033;-81
2021/07/10 05:02:36;;;;;;;31.30;20.00;;;14.70;99.70;;;;;;5021578;28;20037;-80
2021/07/10 05:05:03;;;;;;;28.90;20.52;;;14.70;99.70;;;;;;5021050;28;20286;-81
2021/07/10 05:07:29;;;;;;;34.50;22.38;;;14.80;99.80;;;;;;5008189;28;20099;-81
2021/07/10 05:09:58;;;;;;;36.20;23.90;;;14.80;99.70;;;;;;5020578;28;20087;-81
2021/07/10 05:12:24;;;;;;;32.47;22.52;;;14.90;99.70;;;;;;5018865;28;20028;-81
2021/07/10 05:14:51;;;;;;;32.78;22.13;;;14.90;99.70;;;;;;5015469;28;20567;-81
2021/07/10 05:17:19;;;;;;;37.10;23.70;;;15.00;99.70;;;;;;5010834;28;20055;-81
2021/07/10 05:19:44;;;;;;;39.55;25.27;;;15.00;99.60;;;;;;5018116;28;20048;-81
2021/07/10 05:22:11;;;;;;;45.13;27.65;;;15.10;99.60;;;;;;5050781;28;20116;-81
2021/07/10 05:24:37;;;;;;;50.17;29.88;;;15.20;99.60;;;;;;5007803;28;20496;-81
2021/07/10 05:27:05;;;;;;;52.58;29.73;;;15.20;99.60;;;;;;5042118;28;20060;-81
2021/07/10 05:29:31;;;;;;;48.90;28.05;;;15.20;99.60;;;;;;5037231;28;20433;-81
2021/07/10 05:31:57;;;;;;;54.97;31.00;;;15.30;99.70;;;;;;5023285;28;20048;-81
2021/07/10 05:34:22;;;;;;;57.50;30.63;;;15.30;99.60;;;;;;5011184;28;20033;-81
2021/07/10 05:36:48;;;;;;;55.60;31.25;;;15.40;99.70;;;;;;5037873;28;20045;-81
2021/07/10 05:39:14;;;;;;;55.25;32.97;;;15.40;99.60;;;;;;5036047;28;20110;-81
2021/07/10 05:41:40;;;;;;;53.42;34.30;;;15.50;99.60;;;;;;5034757;28;20045;-81
2021/07/10 05:44:06;;;;;;;58.38;35.05;;;15.50;99.50;;;;;;5008379;28;20033;-81
2021/07/10 05:46:32;;;;;;;55.47;35.05;;;15.60;99.60;;;;;;5034659;28;20489;-81
2021/07/10 05:48:58;;;;;;;61.10;36.50;;;15.60;99.50;;;;;;5010672;28;20044;-81
2021/07/10 05:51:24;;;;;;;60.17;37.50;;;15.70;99.60;;;;;;5037675;28;20079;-81
2021/07/10 05:53:50;;;;;;;59.55;38.63;;;15.80;99.60;;;;;;5010932;28;20480;-80
2021/07/10 05:56:16;;;;;;;52.22;36.58;;;15.80;99.60;;;;;;5020813;28;20032;-81
2021/07/10 05:58:42;;;;;;;58.90;37.78;;;15.90;99.50;;;;;;5025328;28;20036;-81
2021/07/10 06:01:07;;;;;;;60.70;39.72;;;15.90;99.40;;;;;;5004918;28;20069;-81
2021/07/10 06:03:33;;;;;;;57.80;40.47;;;16.00;99.40;;;;;;5035598;28;20584;-81
2021/07/10 06:05:59;;;;;;;55.05;38.63;;;16.10;99.30;;;;;;5033488;28;20045;-81
2021/07/10 06:08:25;;;;;;;56.92;39.25;;;16.20;99.30;;;;;;5003599;28;20036;-81
2021/07/10 06:10:51;;;;;;;56.05;41.35;;;16.20;99.20;;;;;;5017687;28;20041;-81
2021/07/10 06:13:16;;;;;;;59.83;42.67;;;16.30;99.10;;;;;;5020171;28;20028;-81
2021/07/10 06:15:43;;;;;;;62.83;41.42;;;16.40;99.10;;;;;;5032665;28;20528;-81
2021/07/10 06:18:10;;;;;;;56.53;40.60;;;16.40;99.10;;;;;;5024159;28;20044;-80
2021/07/10 06:20:37;;;;;;;51.72;38.45;;;16.50;99.00;;;;;;5017975;28;20042;-81
2021/07/10 06:23:05;;;;;;;57.40;40.50;;;16.60;98.80;;;;;;5015876;28;20029;-81
2021/07/10 06:25:33;;;;;;;54.13;38.72;;;16.70;98.70;;;;;;5048052;28;20091;-81
2021/07/10 06:27:59;;;;;;;56.17;39.10;;;16.70;98.50;;;;;;5024404;28;20135;-81
2021/07/10 06:30:25;;;;;;;50.83;37.05;;;16.80;98.40;;;;;;5037510;28;20411;-81
2021/07/10 06:32:51;;;;;;;51.08;37.45;;;16.80;98.30;;;;;;5030982;28;20499;-81
2021/07/10 06:35:17;;;;;;;49.35;36.55;;;17.00;98.30;;;;;;5049253;28;20025;-81
2021/07/10 06:37:43;;;;;;;48.83;36.20;;;17.10;98.10;;;;;;5032025;28;20094;-81
2021/07/10 06:40:11;;;;;;;51.50;36.40;;;17.10;97.80;;;;;;5030299;28;20052;-81
2021/07/10 06:42:38;;;;;;;51.67;37.20;;;17.20;97.60;;;;;;5039302;28;20075;-81
2021/07/10 06:45:06;;;;;;;49.95;36.22;;;17.30;97.50;;;;;;5017641;28;20032;-80
2021/07/10 06:47:32;;;;;;;49.53;36.00;;;17.30;97.30;;;;;;5031061;28;20040;-81
2021/07/10 06:49:59;;;;;;;52.80;37.45;;;17.30;97.20;;;;;;5032247;28;20044;-81
2021/07/10 06:52:25;;;;;;;50.03;35.72;;;17.40;97.20;;;;;;5024132;28;20025;-81
2021/07/10 06:54:51;;;;;;;49.60;35.28;;;17.30;97.10;;;;;;5000738;28;20436;-81
2021/07/10 06:57:17;;;;;;;48.67;35.83;;;17.30;97.00;;;;;;5018143;28;20037;-81
2021/07/10 06:59:43;;;;;;;45.45;34.40;;;17.30;96.90;;;;;;5030329;28;20032;-81
2021/07/10 07:02:09;;;;;;;46.00;32.22;;;17.30;96.70;;;;;;5012648;28;20134;-81
2021/07/10 07:04:34;;;;;;;44.33;30.45;;;17.40;96.50;;;;;;5010082;28;20396;-81
2021/07/10 07:07:00;;;;;;;49.00;32.50;;;17.30;96.30;;;;;;5045815;28;20049;-82
2021/07/10 07:09:26;;;;;;;42.63;30.05;;;17.40;96.30;;;;;;5029467;28;20039;-81
2021/07/10 07:11:52;;;;;;;46.65;30.90;;;17.30;96.30;;;;;;5015861;28;20044;-80
2021/07/10 07:14:19;;;;;;;47.00;30.65;;;17.30;96.30;;;;;;5001429;28;20029;-81
2021/07/10 07:16:45;;;;;;;44.15;30.55;;;17.30;96.30;;;;;;5031585;28;20109;-81
2021/07/10 07:19:11;;;;;;;45.65;31.30;;;17.20;96.40;;;;;;5034119;28;20036;-81
2021/07/10 07:21:37;;;;;;;45.15;30.20;;;17.20;96.40;;;;;;5022340;28;20130;-81
2021/07/10 07:24:04;;;;;;;46.22;32.25;;;17.20;96.40;;;;;;5023464;28;20707;-81
2021/07/10 07:26:29;;;;;;;47.63;31.20;;;17.20;96.50;;;;;;5027776;28;20477;-80
2021/07/10 07:28:55;;;;;;;45.80;30.70;;;17.20;96.50;;;;;;5002599;28;20044;-81
2021/07/10 07:31:22;;;;;;;42.72;30.02;;;17.20;96.50;;;;;;5023497;28;20104;-81
2021/07/10 07:33:47;;;;;;;44.17;28.63;;;17.30;96.40;;;;;;5018487;28;20037;-82
2021/07/10 07:36:13;;;;;;;41.83;28.73;;;17.30;96.40;;;;;;5016966;28;20106;-81
2021/07/10 07:38:39;;;;;;;42.20;29.23;;;17.20;96.40;;;;;;5029928;28;21501;-81
2021/07/10 07:41:06;;;;;;;39.28;25.83;;;17.30;96.40;;;;;;5001527;28;20761;-81
2021/07/10 07:43:32;;;;;;;41.45;27.27;;;17.30;96.30;;;;;;5039284;28;20559;-81
2021/07/10 07:45:58;;;;;;;40.85;27.48;;;17.30;96.30;;;;;;5023831;28;20107;-82
2021/07/10 07:48:24;;;;;;;43.25;27.63;;;17.30;96.30;;;;;;5037459;28;20048;-81
2021/07/10 07:50:50;;;;;;;40.50;27.58;;;17.30;96.20;;;;;;5029760;28;20401;-81
2021/07/10 07:53:18;;;;;;;40.65;26.73;;;17.30;96.30;;;;;;5034151;28;20544;-82
2021/07/10 07:55:44;;;;;;;33.47;22.05;;;17.30;96.30;;;;;;5018768;28;20074;-81
2021/07/10 07:58:10;;;;;;;38.67;26.08;;;17.30;96.20;;;;;;5052044;28;20055;-82
2021/07/10 08:00:36;;;;;;;46.90;28.67;;;17.30;96.30;;;;;;5046269;28;20033;-82
2021/07/10 08:03:02;;;;;;;47.17;30.10;;;17.20;96.50;;;;;;5050937;28;20063;-81
2021/07/10 08:05:28;;;;;;;48.75;28.83;;;17.20;96.70;;;;;;5048626;28;20442;-82
2021/07/10 08:07:54;;;;;;;54.30;31.80;;;17.20;96.80;;;;;;5051469;28;20123;-81
2021/07/10 08:10:20;;;;;;;55.80;32.75;;;17.20;97.00;;;;;;5049600;28;20052;-81
2021/07/10 08:12:49;;;;;;;57.95;34.97;;;17.10;97.30;;;;;;5050477;28;20535;-81
2021/07/10 08:15:19;;;;;;;64.85;35.15;;;17.10;97.80;;;;;;5048220;28;20504;-81
2021/07/10 08:17:47;;;;;;;57.70;34.65;;;17.10;97.70;;;;;;5017070;28;20065;-81
2021/07/10 08:20:15;;;;;;;65.20;36.33;;;17.10;97.90;;;;;;5062900;28;20041;-81
2021/07/10 08:22:41;;;;;;;66.18;36.67;;;17.00;98.10;;;;;;5033457;28;20024;-81
2021/07/10 08:25:09;;;;;;;57.85;35.33;;;17.00;98.20;;;;;;5035288;28;20044;-82
2021/07/10 08:27:34;;;;;;;57.67;34.50;;;17.00;98.30;;;;;;5048092;28;20049;-82
2021/07/10 08:30:00;;;;;;;58.33;35.20;;;17.00;98.40;;;;;;5062161;28;20451;-82
2021/07/10 08:32:26;;;;;;;55.33;33.17;;;17.00;98.40;;;;;;5025869;28;20025;-81
2021/07/10 08:34:52;;;;;;;62.22;35.30;;;17.00;98.40;;;;;;5039784;28;20475;-80
2021/07/10 08:37:18;;;;;;;54.38;34.42;;;16.90;98.40;;;;;;5023967;28;20044;-81
2021/07/10 08:39:43;;;;;;;57.25;33.80;;;17.00;98.60;;;;;;5038541;28;20037;-81
2021/07/10 08:42:09;;;;;;;52.00;32.70;;;17.00;98.70;;;;;;5021582;28;20120;-81
2021/07/10 08:44:40;;;;;;;49.42;31.58;;;17.00;98.70;;;;;;5034583;28;20041;-81
2021/07/10 08:47:11;;;;;;;51.17;31.30;;;17.20;98.80;;;;;;5055929;28;20048;-81
2021/07/10 08:49:38;;;;;;;48.28;30.00;;;17.20;98.80;;;;;;5037673;28;20033;-81
2021/07/10 08:52:05;;;;;;;47.13;29.65;;;17.30;98.60;;;;;;5028366;28;20029;-81
2021/07/10 08:54:32;;;;;;;47.20;29.58;;;17.40;98.30;;;;;;5038074;28;20120;-81
2021/07/10 08:56:57;;;;;;;44.13;28.63;;;17.50;98.10;;;;;;5039348;28;20048;-81
2021/07/10 08:59:24;;;;;;;49.13;29.67;;;17.60;97.80;;;;;;5025377;28;20141;-81
2021/07/10 09:01:54;;;;;;;44.15;29.08;;;17.80;97.80;;;;;;5030075;28;20467;-82
2021/07/10 09:04:21;;;;;;;43.17;27.20;;;18.00;98.00;;;;;;5024233;28;20055;-81
2021/07/10 09:06:47;;;;;;;44.33;28.00;;;18.10;97.90;;;;;;5053970;28;20111;-82
2021/07/10 09:09:13;;;;;;;44.70;27.25;;;18.20;97.70;;;;;;5034931;28;20139;-81
2021/07/10 09:11:39;;;;;;;44.75;26.88;;;18.40;97.60;;;;;;5038710;28;20085;-81
2021/07/10 09:14:05;;;;;;;44.40;27.17;;;18.40;97.10;;;;;;5013307;28;20508;-81
2021/07/10 09:16:33;;;;;;;40.13;25.83;;;18.50;97.20;;;;;;5023637;28;20060;-82
2021/07/10 09:19:10;;;;;;;37.03;24.92;;;18.60;97.20;;;;;;5041537;28;20037;-82
2021/07/10 09:21:41;;;;;;;38.13;25.55;;;18.80;96.70;;;;;;5047665;28;20040;-83
2021/07/10 09:24:13;;;;;;;39.60;25.73;;;18.90;96.50;;;;;;5046591;28;20064;-83
2021/07/10 09:26:43;;;;;;;33.08;23.80;;;18.90;96.60;;;;;;5046147;28;20117;-83
2021/07/10 09:29:15;;;;;;;32.15;23.10;;;19.00;96.10;;;;;;5037357;28;20039;-83
2021/07/10 09:31:47;;;;;;;35.42;23.38;;;19.20;95.80;;;;;;5042927;28;20045;-82
2021/07/10 09:34:19;;;;;;;31.38;23.95;;;19.30;95.80;;;;;;5037666;28;20416;-83
2021/07/10 09:37:18;;;;;;;32.87;22.27;;;19.40;95.60;;;;;;5047427;28;20105;-83
2021/07/10 09:39:59;;;;;;;35.47;23.38;;;19.50;95.20;;;;;;5046739;28;20053;-82
2021/07/10 09:42:35;;;;;;;31.52;21.95;;;19.50;94.30;;;;;;5041558;28;20139;-82
2021/07/10 09:45:01;;;;;;;29.23;20.30;;;19.60;94.20;;;;;;5038802;28;20060;-81
2021/07/10 09:47:30;;;;;;;28.85;20.55;;;19.60;94.00;;;;;;5019344;28;20045;-81
2021/07/10 09:49:57;;;;;;;28.55;19.40;;;19.60;93.60;;;;;;5034961;28;20138;-83
2021/07/10 09:52:24;;;;;;;27.58;20.20;;;19.60;93.40;;;;;;5032646;28;20037;-82
2021/07/10 09:54:53;;;;;;;34.05;19.92;;;19.50;93.60;;;;;;5036252;28;20037;-81
2021/07/10 09:57:27;;;;;;;26.90;18.55;;;19.50;93.40;;;;;;5035104;28;20404;-82
2021/07/10 09:59:56;;;;;;;29.23;20.83;;;19.50;93.80;;;;;;5034671;28;20029;-82
2021/07/10 10:02:28;;;;;;;25.73;19.30;;;19.50;93.90;;;;;;5033272;28;20101;-81
2021/07/10 10:05:04;;;;;;;28.83;19.17;;;19.50;93.70;;;;;;5035262;28;20101;-82
2021/07/10 10:07:59;;;;;;;27.17;19.92;;;19.50;93.10;;;;;;5034123;28;20032;-81
2021/07/10 10:10:32;;;;;;;29.35;20.00;;;19.40;93.10;;;;;;5054055;28;20052;-83
2021/07/10 10:13:04;;;;;;;29.63;20.10;;;19.40;93.30;;;;;;5047117;28;20037;-82
2021/07/10 10:15:31;;;;;;;30.83;21.33;;;19.30;93.50;;;;;;5046141;28;20246;-80
2021/07/10 10:17:58;;;;;;;30.33;20.40;;;19.20;93.50;;;;;;5019104;28;20032;-80
2021/07/10 10:20:24;;;;;;;27.30;19.65;;;19.10;93.50;;;;;;5061401;28;20081;-81
2021/07/10 10:22:51;;;;;;;30.00;21.08;;;19.10;93.60;;;;;;5026886;28;20051;-79
2021/07/10 10:25:17;;;;;;;29.70;20.83;;;19.00;93.70;;;;;;5004956;28;20041;-81
2021/07/10 10:27:49;;;;;;;31.33;21.05;;;18.90;93.70;;;;;;5026890;28;20515;-82
2021/07/10 10:30:16;;;;;;;33.40;21.33;;;18.90;93.80;;;;;;5042451;28;20048;-81
2021/07/10 10:32:44;;;;;;;30.20;21.27;;;18.90;93.90;;;;;;5025038;28;20376;-79
2021/07/10 10:35:11;;;;;;;27.55;19.75;;;18.90;93.80;;;;;;5037041;28;20090;-82
2021/07/10 10:37:38;;;;;;;29.10;20.98;;;18.90;93.60;;;;;;5033944;28;20048;-80
2021/07/10 10:40:10;;;;;;;31.75;20.05;;;19.00;93.50;;;;;;5042006;28;20044;-80
2021/07/10 10:42:37;;;;;;;31.67;21.17;;;19.10;93.50;;;;;;5051887;28;20025;-80
2021/07/10 10:45:05;;;;;;;28.80;19.15;;;19.20;93.30;;;;;;5020919;28;20035;-81
2021/07/10 10:47:41;;;;;;;27.23;18.67;;;19.30;93.10;;;;;;5009498;28;20032;-81
2021/07/10 10:50:23;;;;;;;27.98;19.38;;;19.40;92.90;;;;;;5041207;28;20044;-80
2021/07/10 10:52:52;;;;;;;30.63;18.77;;;19.50;92.50;;;;;;5044093;28;20029;-80
2021/07/10 10:55:20;;;;;;;30.35;20.85;;;19.60;92.80;;;;;;5054965;28;20044;-80
2021/07/10 10:57:56;;;;;;;29.33;19.85;;;19.70;92.20;;;;;;5041852;28;20497;-80
2021/07/10 11:00:32;;;;;;;28.20;18.45;;;19.70;92.10;;;;;;5054353;28;20175;-82
2021/07/10 11:02:59;;;;;;;26.55;18.60;;;19.70;92.10;;;;;;5034154;28;20037;-81
2021/07/10 11:05:31;;;;;;;27.30;18.20;;;19.80;92.00;;;;;;5037383;28;20108;-82
2021/07/10 11:08:19;;;;;;;25.92;18.77;;;19.80;91.60;;;;;;5058489;28;20445;-81
2021/07/10 11:10:54;;;;;;;30.15;20.20;;;19.90;91.40;;;;;;5060773;28;20032;-80
2021/07/10 11:13:26;;;;;;;25.15;18.88;;;20.00;91.50;;;;;;5043435;28;20045;-81
2021/07/10 11:16:04;;;;;;;29.02;17.95;;;20.00;91.50;;;;;;5038257;28;20036;-81
2021/07/10 11:18:49;;;;;;;26.30;17.92;;;20.00;91.30;;;;;;5044432;28;20601;-80
2021/07/10 11:21:34;;;;;;;23.67;16.92;;;20.00;90.90;;;;;;5047519;28;21537;-81
2021/07/10 11:26:53;;;;;;;25.00;18.13;;;19.90;91.10;;;;;;5058886;28;20032;-81
2021/07/10 11:29:24;;;;;;;29.20;18.30;;;19.90;91.20;;;;;;5044432;28;20405;-80
2021/07/10 11:31:51;;;;;;;24.73;17.00;;;19.90;90.80;;;;;;5062702;28;20032;-82
2021/07/10 11:34:18;;;;;;;23.98;17.25;;;19.90;90.80;;;;;;5029629;28;20242;-80
2021/07/10 11:36:48;;;;;;;23.20;17.05;;;19.80;90.80;;;;;;5043386;28;20037;-81
2021/07/10 11:39:33;;;;;;;23.60;16.10;;;19.80;90.80;;;;;;5048949;28;20485;-82
2021/07/10 11:42:30;;;;;;;23.27;16.52;;;19.80;90.70;;;;;;5044939;28;20028;-81
2021/07/10 11:45:04;;;;;;;23.55;16.40;;;19.80;90.80;;;;;;5043523;28;20087;-80
2021/07/10 11:47:33;;;;;;;21.23;15.65;;;19.80;90.70;;;;;;5045967;28;20037;-81
2021/07/10 11:50:01;;;;;;;22.98;14.77;;;19.80;90.70;;;;;;5045060;28;20071;-82
2021/07/10 11:52:26;;;;;;;23.35;16.00;;;19.90;90.90;;;;;;5043280;28;20036;-82
2021/07/10 11:54:57;;;;;;;24.98;17.48;;;20.00;90.70;;;;;;5039832;28;20496;-82
2021/07/10 11:57:26;;;;;;;23.98;16.33;;;20.10;90.70;;;;;;5024318;28;20086;-82
2021/07/10 11:59:54;;;;;;;29.67;18.83;;;20.20;90.80;;;;;;5038351;28;20036;-80
2021/07/10 12:02:27;;;;;;;26.40;17.15;;;20.30;90.80;;;;;;5064452;28;20465;-80
2021/07/10 12:05:17;;;;;;;22.58;16.50;;;20.40;90.20;;;;;;5058463;28;20075;-79
2021/07/10 12:07:58;;;;;;;23.05;16.73;;;20.40;90.10;;;;;;5036858;28;20036;-80
2021/07/10 12:10:36;;;;;;;24.13;17.27;;;20.50;90.20;;;;;;5063724;28;20060;-83
2021/07/10 12:13:14;;;;;;;23.38;16.88;;;20.60;90.10;;;;;;5057070;28;20036;-81
2021/07/10 12:15:44;;;;;;;23.75;16.33;;;20.60;89.70;;;;;;5042978;28;20048;-80
2021/07/10 12:18:13;;;;;;;25.35;18.92;;;20.60;88.80;;;;;;5045631;28;20044;-82
2021/07/10 12:20:43;;;;;;;21.90;15.52;;;20.60;88.70;;;;;;5059804;28;20043;-81
2021/07/10 12:23:15;;;;;;;22.50;16.65;;;20.60;88.70;;;;;;5059729;28;20021;-81
2021/07/10 12:25:45;;;;;;;21.92;16.63;;;20.60;88.20;;;;;;5043425;28;20057;-80
2021/07/10 12:28:12;;;;;;;20.60;16.45;;;20.50;88.20;;;;;;5055512;28;20148;-81
2021/07/10 12:30:43;;;;;;;21.48;15.15;;;20.60;88.40;;;;;;5038927;28;20106;-82
2021/07/10 12:33:27;;;;;;;19.08;14.80;;;20.60;87.70;;;;;;5042374;28;20078;-81
2021/07/10 12:36:28;;;;;;;21.50;16.13;;;20.70;87.40;;;;;;5043169;28;20036;-82